ADDS METAR Data INFO
IDs: Format: Raw Decoded Include TAF

Data at: 0101 UTC 21 Oct 2017

KFFA 210040Z AUTO 00000KT 10SM CLR 17/14 A3020 RMK AO2 T01650140
KFFA 210020Z AUTO 00000KT 10SM CLR 17/14 A3020 RMK AO2 T01650139
KFFA 210000Z AUTO 00000KT 10SM CLR 17/14 A3020 RMK AO2 T01660138
KFFA 202340Z AUTO 00000KT 10SM CLR 17/14 A3020 RMK AO2 T01680138
KFFA 202320Z AUTO 00000KT 10SM CLR 17/14 A3019 RMK AO2 T01660136
KFFA 202300Z AUTO 00000KT 10SM CLR 17/14 A3019 RMK AO2 T01730135
KFFA 202240Z AUTO 00000KT 10SM CLR 18/14 A3018 RMK AO2 T01810137
KFFA 202220Z AUTO 00000KT 10SM CLR 19/14 A3018 RMK AO2 T01880137
KFFA 202200Z AUTO 00000KT 10SM CLR 19/14 A3018 RMK AO2 T01930136
KFFA 202140Z AUTO 00000KT 10SM CLR 20/14 A3017 RMK AO2 T01990135
KFFA 202120Z AUTO 00000KT 10SM CLR 20/14 A3017 RMK AO2 T02040135
KFFA 202100Z AUTO 00000KT 10SM CLR 21/13 A3018 RMK AO2 T02080134
KFFA 202040Z AUTO 00000KT 10SM CLR 21/13 A3018 RMK AO2 T02110131
KFFA 202020Z AUTO 00000KT 10SM CLR 21/14 A3018 RMK AO2 T02130136
KFFA 202000Z AUTO 00000KT 10SM CLR 21/14 A3018 RMK AO2 T02130141
KFFA 201940Z AUTO 00000KT 10SM CLR 21/13 A3018 RMK AO2 T02140134
KFFA 201920Z AUTO 00000KT 10SM CLR 21/13 A3018 RMK AO2 T02140130
KFFA 201900Z AUTO 00000KT 10SM CLR 22/12 A3018 RMK AO2 T02180121
KFFA 201840Z AUTO 00000KT 10SM CLR 22/10 A3018 RMK AO2 T02200103
KFFA 201820Z AUTO 00000KT 10SM CLR 23/08 A3018 RMK AO2 T02250083
KFFA 201800Z AUTO 00000KT 10SM CLR 23/09 A3018 RMK AO2 T02250090
KFFA 201740Z AUTO 00000KT 10SM CLR 22/12 A3019 RMK AO2 T02240124
KFFA 201720Z AUTO 00000KT 10SM CLR 22/12 A3020 RMK AO2 T02230124
KFFA 201700Z AUTO 00000KT 10SM CLR 22/13 A3020 RMK AO2 T02210126
KFFA 201640Z AUTO 00000KT 10SM CLR 22/13 A3021 RMK AO2 T02200129
KFFA 201620Z AUTO 00000KT 10SM CLR 22/13 A3022 RMK AO2 T02190130
KFFA 201600Z AUTO 00000KT 10SM CLR 21/13 A3022 RMK AO2 T02120133
KFFA 201540Z AUTO 00000KT 10SM CLR 21/13 A3022 RMK AO2 T02090132
KFFA 201520Z AUTO 00000KT 10SM CLR 20/14 A3023 RMK AO2 T02040136
KFFA 201500Z AUTO 00000KT 10SM CLR 20/15 A3022 RMK AO2 T02000146
KFFA 201440Z AUTO 00000KT 10SM CLR 20/16 A3023 RMK AO2 T01950160
KFFA 201420Z AUTO 00000KT 10SM CLR 19/18 A3023 RMK AO2 T01940178
KFFA 201400Z AUTO 00000KT 10SM CLR 19/19 A3023 RMK AO2 T01920189
KFFA 201340Z AUTO 00000KT 10SM CLR 19/19 A3023 RMK AO2 T01900189
KFFA 201320Z AUTO 00000KT 10SM CLR 19/19 A3023 RMK AO2 T01870187
KFFA 201300Z AUTO 00000KT 10SM CLR A3022 RMK AO2
KFFA 201240Z AUTO 00000KT 10SM CLR A3022 RMK AO2
KFFA 201220Z AUTO 00000KT 10SM CLR A3022 RMK AO2
KFFA 201200Z AUTO 00000KT 10SM CLR A3021 RMK AO2
KFFA 201120Z AUTO 00000KT 10SM CLR A3020 RMK AO2
KFFA 201100Z AUTO 00000KT 10SM CLR A3020 RMK AO2
KFFA 201040Z AUTO 00000KT 10SM CLR 15/15 A3019 RMK AO2 T01490149
KFFA 201020Z AUTO 00000KT 10SM CLR A3019 RMK AO2
KFFA 201000Z AUTO 00000KT 10SM CLR 15/15 A3019 RMK AO2 T01450145
KFFA 200940Z AUTO 00000KT 10SM CLR A3018 RMK AO2
KFFA 200920Z AUTO 00000KT 10SM CLR A3018 RMK AO2
KFFA 200900Z AUTO 00000KT 10SM CLR A3017 RMK AO2
KFFA 200840Z AUTO 00000KT 10SM CLR A3017 RMK AO2
KFFA 200820Z AUTO 00000KT 7SM CLR A3017 RMK AO2
KFFA 200800Z AUTO 00000KT 10SM CLR A3017 RMK AO2
KFFA 200740Z AUTO 00000KT 10SM CLR A3018 RMK AO2
KFFA 200720Z AUTO 00000KT 10SM CLR A3017 RMK AO2
KFFA 200700Z AUTO 00000KT 10SM CLR A3018 RMK AO2
KFFA 200640Z AUTO 00000KT 10SM CLR A3018 RMK AO2
KFFA 200620Z AUTO 00000KT 10SM CLR A3018 RMK AO2
KFFA 200600Z AUTO 00000KT 10SM CLR A3018 RMK AO2
KFFA 200540Z AUTO 00000KT 10SM CLR A3019 RMK AO2
KFFA 200520Z AUTO 00000KT 10SM CLR 16/16 A3019 RMK AO2 T01620162
KFFA 200500Z AUTO 00000KT 10SM CLR 17/17 A3018 RMK AO2 T01650165
KFFA 200440Z AUTO 00000KT 10SM CLR 17/17 A3018 RMK AO2 T01670167
KFFA 200420Z AUTO 00000KT 10SM CLR 17/17 A3019 RMK AO2 T01680168
KFFA 200400Z AUTO 00000KT 10SM CLR 17/17 A3019 RMK AO2 T01670167
KFFA 200340Z AUTO 00000KT 10SM CLR 17/16 A3019 RMK AO2 T01680161
KFFA 200320Z AUTO 00000KT 10SM CLR 17/16 A3019 RMK AO2 T01700161
KFFA 200300Z AUTO 00000KT 10SM CLR 17/16 A3019 RMK AO2 T01700164
KFFA 200240Z AUTO 00000KT 10SM CLR 17/16 A3019 RMK AO2 T01710163
KFFA 200220Z AUTO 00000KT 10SM CLR 17/16 A3019 RMK AO2 T01740161
KFFA 200200Z AUTO 00000KT 10SM CLR 18/16 A3019 RMK AO2 T01750158
KFFA 200140Z AUTO 00000KT 10SM CLR 18/16 A3019 RMK AO2 T01780155
KFFA 200120Z AUTO 00000KT 10SM CLR 18/15 A3019 RMK AO2 T01760152
KFFA 200100Z AUTO 00000KT 10SM CLR 17/15 A3018 RMK AO2 T01740151
KFFA 200040Z AUTO 00000KT 10SM CLR 18/15 A3018 RMK AO2 T01750151
KFFA 200020Z AUTO 00000KT 10SM CLR 18/15 A3018 RMK AO2 T01760150
KFFA 200000Z AUTO 00000KT 10SM CLR 18/15 A3018 RMK AO2 T01750148
KFFA 192340Z AUTO 00000KT 10SM CLR 18/15 A3018 RMK AO2 T01820148
KFFA 192320Z AUTO 00000KT 10SM CLR 19/15 A3018 RMK AO2 T01860148
KFFA 192300Z AUTO 00000KT 10SM CLR 19/15 A3018 RMK AO2 T01880147
KFFA 192240Z AUTO 00000KT 10SM CLR 19/15 A3017 RMK AO2 T01900147
KFFA 192220Z AUTO 00000KT 10SM CLR 19/15 A3017 RMK AO2 T01940145
KFFA 192200Z AUTO 00000KT 10SM CLR 20/15 A3017 RMK AO2 T01990147
KFFA 192140Z AUTO 00000KT 10SM CLR 21/15 A3017 RMK AO2 T02050149
KFFA 192120Z AUTO 00000KT 10SM CLR 21/15 A3018 RMK AO2 T02100148
KFFA 192100Z AUTO 00000KT 10SM CLR 21/15 A3018 RMK AO2 T02130147
KFFA 192040Z AUTO 00000KT 10SM CLR 22/15 A3018 RMK AO2 T02160146
KFFA 192020Z AUTO 00000KT 10SM CLR 22/15 A3019 RMK AO2 T02170147
KFFA 192000Z AUTO 00000KT 10SM CLR 22/15 A3019 RMK AO2 T02190149
KFFA 191940Z AUTO 00000KT 10SM CLR 22/15 A3019 RMK AO2 T02190151
KFFA 191920Z AUTO 00000KT 10SM CLR 22/15 A3019 RMK AO2 T02190152
KFFA 191900Z AUTO 00000KT 10SM CLR 22/15 A3019 RMK AO2 T02210153
KFFA 191840Z AUTO 00000KT 10SM CLR 22/15 A3020 RMK AO2 T02220153
KFFA 191820Z AUTO 00000KT 10SM CLR 22/16 A3020 RMK AO2 T02230155
KFFA 191800Z AUTO 00000KT 10SM CLR 22/15 A3021 RMK AO2 T02230154
KFFA 191740Z AUTO 00000KT 10SM CLR 22/15 A3022 RMK AO2 T02220153
KFFA 191720Z AUTO 00000KT 10SM CLR 22/15 A3023 RMK AO2 T02230153
KFFA 191700Z AUTO 00000KT 10SM CLR 22/16 A3024 RMK AO2 T02230155
KFFA 191640Z AUTO 00000KT 10SM CLR 22/15 A3025 RMK AO2 T02200154
KFFA 191620Z AUTO 00000KT 10SM CLR 22/16 A3026 RMK AO2 T02210155
KFFA 191600Z AUTO 00000KT 10SM CLR 22/16 A3027 RMK AO2 T02210155
KFFA 191540Z AUTO 00000KT 10SM CLR 22/15 A3027 RMK AO2 T02190153
KFFA 191520Z AUTO 00000KT 10SM CLR 22/15 A3027 RMK AO2 T02170154
KFFA 191500Z AUTO 00000KT 10SM CLR 22/15 A3027 RMK AO2 T02160151
KFFA 191440Z AUTO 00000KT 10SM CLR 22/15 A3027 RMK AO2 T02150150
KFFA 191420Z AUTO 00000KT 10SM CLR 21/15 A3027 RMK AO2 T02120146
KFFA 191400Z AUTO 00000KT 10SM CLR 21/15 A3027 RMK AO2 T02130146
KFFA 191340Z AUTO 00000KT 10SM CLR 21/15 A3028 RMK AO2 T02120145
KFFA 191320Z AUTO 00000KT 10SM CLR 21/14 A3028 RMK AO2 T02080141